Time;durP1;ratioP1;P1;durP2;ratioP2;P2;SDS_P1;SDS_P2;PMS_P1;PMS_P2;Temp;Humidity;BMP_temperature;BMP_pressure;BME280_temperature;BME280_humidity;BME280_pressure;Samples;Min_cycle;Max_cycle;Signal;HPM_P1;HPM_P2
2022/12/22 03:25:54;;;;;;;63.25;22.20;;;;;;;;;;6217570;28;20061;-87
2022/12/22 03:28:54;;;;;;;74.20;21.67;;;;;;;;;;6222124;28;20469;-86
2022/12/22 03:31:55;;;;;;;77.47;21.10;;;;;;;;;;6222020;28;20018;-86
2022/12/22 03:34:55;;;;;;;75.60;22.13;;;;;;;;;;6226139;28;20109;-86
2022/12/22 03:37:55;;;;;;;69.87;20.13;;;;;;;;;;6226077;28;20018;-86
2022/12/22 03:40:56;;;;;;;66.57;22.20;;;;;;;;;;6234477;28;20075;-86
2022/12/22 03:47:15;;;;;;;93.30;26.73;;;;;;;;;;6226332;28;20028;-86
2022/12/22 03:50:15;;;;;;;101.83;28.60;;;;;;;;;;6228593;28;20032;-86
2022/12/22 03:53:15;;;;;;;65.93;23.57;;;;;;;;;;6222188;28;20034;-86
2022/12/22 03:56:16;;;;;;;105.20;33.20;;;;;;;;;;6224418;28;20033;-85
2022/12/22 03:59:16;;;;;;;216.07;73.40;;;;;;;;;;6226748;28;20018;-85
2022/12/22 04:02:17;;;;;;;103.73;46.10;;;;;;;;;;6229343;28;20425;-85
2022/12/22 04:05:17;;;;;;;92.77;31.50;;;;;;;;;;6219182;28;20010;-86
2022/12/22 04:08:17;;;;;;;118.23;45.07;;;;;;;;;;6220611;28;20018;-85
2022/12/22 04:14:36;;;;;;;107.20;47.42;;;;;;;;;;6229543;28;20033;-85
2022/12/22 04:17:36;;;;;;;85.10;36.07;;;;;;;;;;6222491;28;20497;-85
2022/12/22 04:20:36;;;;;;;83.33;24.87;;;;;;;;;;6216436;28;20261;-85
2022/12/22 04:23:37;;;;;;;86.80;30.70;;;;;;;;;;6222837;28;20010;-85
2022/12/22 04:26:37;;;;;;;123.33;45.83;;;;;;;;;;6222722;28;20124;-85
2022/12/22 04:29:37;;;;;;;118.37;44.23;;;;;;;;;;6220659;28;20473;-84
2022/12/22 04:32:37;;;;;;;100.47;34.72;;;;;;;;;;6210516;28;20030;-79
2022/12/22 04:35:37;;;;;;;82.80;28.23;;;;;;;;;;6213458;28;20028;-78
2022/12/22 04:38:38;;;;;;;70.28;23.73;;;;;;;;;;6214521;28;20099;-79
2022/12/22 04:41:38;;;;;;;68.37;23.20;;;;;;;;;;6208188;28;20011;-78
2022/12/22 04:44:38;;;;;;;84.27;25.77;;;;;;;;;;6212747;28;20516;-78
2022/12/22 04:47:38;;;;;;;132.10;48.53;;;;;;;;;;6218593;28;20041;-78
2022/12/22 04:50:38;;;;;;;97.78;35.08;;;;;;;;;;6223026;28;20277;-78
2022/12/22 04:53:39;;;;;;;101.15;29.30;;;;;;;;;;6213051;28;20390;-78
2022/12/22 04:56:39;;;;;;;81.43;27.77;;;;;;;;;;6215184;28;20124;-78
2022/12/22 04:59:39;;;;;;;84.97;31.73;;;;;;;;;;6216438;28;20014;-78
2022/12/22 05:02:39;;;;;;;94.28;32.83;;;;;;;;;;6213986;28;20014;-78
2022/12/22 05:05:39;;;;;;;96.22;30.58;;;;;;;;;;6212071;28;20702;-78
2022/12/22 05:08:40;;;;;;;91.27;30.30;;;;;;;;;;6223192;28;20093;-78
2022/12/22 05:11:40;;;;;;;113.07;30.57;;;;;;;;;;6217236;28;20010;-78
2022/12/22 05:14:40;;;;;;;116.30;32.10;;;;;;;;;;6216795;28;20432;-78
2022/12/22 05:17:40;;;;;;;91.20;31.05;;;;;;;;;;6210241;28;20548;-78
2022/12/22 05:20:40;;;;;;;99.40;27.17;;;;;;;;;;6214601;28;20450;-78
2022/12/22 05:23:41;;;;;;;87.33;28.37;;;;;;;;;;6215084;28;20018;-78
2022/12/22 05:26:41;;;;;;;109.60;34.25;;;;;;;;;;6214959;28;20427;-78
2022/12/22 05:29:41;;;;;;;96.53;33.38;;;;;;;;;;6213025;28;20038;-78
2022/12/22 05:32:41;;;;;;;100.45;32.17;;;;;;;;;;6207475;28;20113;-78
2022/12/22 05:35:42;;;;;;;143.93;40.10;;;;;;;;;;6211363;28;20445;-78
2022/12/22 05:38:43;;;;;;;95.63;30.95;;;;;;;;;;6206186;28;20125;-78
2022/12/22 05:41:43;;;;;;;128.85;37.83;;;;;;;;;;6203539;28;20010;-78
2022/12/22 05:44:44;;;;;;;137.93;44.43;;;;;;;;;;6195711;28;20085;-78
2022/12/22 05:47:45;;;;;;;183.05;56.83;;;;;;;;;;6208518;28;20014;-78
2022/12/22 05:50:45;;;;;;;158.88;49.58;;;;;;;;;;6200144;28;20033;-78
2022/12/22 05:53:45;;;;;;;104.03;38.90;;;;;;;;;;6203668;28;20101;-79
2022/12/22 05:56:46;;;;;;;121.25;38.35;;;;;;;;;;6202433;28;20154;-78
2022/12/22 05:59:46;;;;;;;100.40;31.53;;;;;;;;;;6204299;28;20010;-78
2022/12/22 06:02:46;;;;;;;99.53;30.03;;;;;;;;;;6206345;28;20049;-78
2022/12/22 06:05:48;;;;;;;107.15;36.53;;;;;;;;;;6209771;28;20049;-78
2022/12/22 06:08:48;;;;;;;120.80;42.35;;;;;;;;;;6207776;28;20014;-78
2022/12/22 06:11:48;;;;;;;91.82;36.70;;;;;;;;;;6203991;28;20105;-79
2022/12/22 06:14:49;;;;;;;121.22;44.00;;;;;;;;;;6207006;28;20021;-79
2022/12/22 06:17:49;;;;;;;127.53;46.93;;;;;;;;;;6209480;28;20078;-79
2022/12/22 06:20:50;;;;;;;147.48;56.20;;;;;;;;;;6217097;28;20014;-79
2022/12/22 06:23:53;;;;;;;171.27;62.58;;;;;;;;;;6216175;28;20014;-79
2022/12/22 06:26:54;;;;;;;170.05;63.08;;;;;;;;;;6205262;28;20485;-79
2022/12/22 06:29:54;;;;;;;131.90;51.03;;;;;;;;;;6202526;28;20019;-79
2022/12/22 06:32:54;;;;;;;98.65;36.80;;;;;;;;;;6205678;28;20105;-78
2022/12/22 06:35:54;;;;;;;106.77;29.17;;;;;;;;;;6200427;28;20427;-78
2022/12/22 06:38:55;;;;;;;87.25;30.02;;;;;;;;;;6208508;28;20532;-78
2022/12/22 06:45:14;;;;;;;98.20;32.45;;;;;;;;;;6213265;28;20485;-78
2022/12/22 06:48:14;;;;;;;113.17;36.13;;;;;;;;;;6209581;28;20033;-78
2022/12/22 06:51:14;;;;;;;113.23;38.83;;;;;;;;;;6205530;28;20445;-78
2022/12/22 06:54:15;;;;;;;109.80;38.60;;;;;;;;;;6210986;28;20088;-78
2022/12/22 06:57:15;;;;;;;128.87;43.90;;;;;;;;;;6213696;28;20088;-78
2022/12/22 07:00:15;;;;;;;149.97;56.40;;;;;;;;;;6208780;28;20379;-78
2022/12/22 07:03:16;;;;;;;135.97;55.30;;;;;;;;;;6202147;28;20090;-78
2022/12/22 07:06:18;;;;;;;177.00;62.07;;;;;;;;;;6198670;28;20361;-77
2022/12/22 07:09:19;;;;;;;158.40;57.33;;;;;;;;;;6208272;28;20518;-77
2022/12/22 07:12:19;;;;;;;161.57;59.47;;;;;;;;;;6201949;28;20014;-77
2022/12/22 07:15:19;;;;;;;164.10;54.33;;;;;;;;;;6207369;28;20014;-78
2022/12/22 07:18:20;;;;;;;128.15;43.70;;;;;;;;;;6214222;28;20034;-78
2022/12/22 07:21:20;;;;;;;110.60;37.10;;;;;;;;;;6213557;28;20022;-78
2022/12/22 07:24:24;;;;;;;109.73;37.00;;;;;;;;;;6210511;28;20033;-77
2022/12/22 07:27:24;;;;;;;121.82;39.60;;;;;;;;;;6208540;28;20061;-77
2022/12/22 07:30:25;;;;;;;112.77;40.00;;;;;;;;;;6213349;28;20013;-77
2022/12/22 07:33:25;;;;;;;104.77;37.93;;;;;;;;;;6211133;28;20705;-78
2022/12/22 07:36:25;;;;;;;92.90;29.27;;;;;;;;;;6213498;28;20034;-77
2022/12/22 07:39:25;;;;;;;116.22;37.53;;;;;;;;;;6212212;28;20050;-77
2022/12/22 07:42:44;;;;;;;104.80;39.72;;;;;;;;;;6215527;28;20057;-77
2022/12/22 07:45:44;;;;;;;109.15;35.83;;;;;;;;;;6213493;28;20371;-78
2022/12/22 07:52:03;;;;;;;99.38;36.95;;;;;;;;;;6211223;28;20034;-78
2022/12/22 07:55:03;;;;;;;110.53;39.27;;;;;;;;;;6206593;28;20402;-78
2022/12/22 07:58:04;;;;;;;121.13;39.63;;;;;;;;;;6211742;28;20104;-77
2022/12/22 08:01:04;;;;;;;101.30;37.63;;;;;;;;;;6211655;28;20021;-78
2022/12/22 08:04:04;;;;;;;95.27;38.80;;;;;;;;;;6194450;28;20011;-78
2022/12/22 08:07:04;;;;;;;101.83;40.33;;;;;;;;;;6198620;28;20018;-78
2022/12/22 08:10:05;;;;;;;119.07;42.23;;;;;;;;;;6195718;28;20025;-78
2022/12/22 08:13:05;;;;;;;97.17;40.33;;;;;;;;;;6215576;28;20022;-78
2022/12/22 08:16:07;;;;;;;102.22;40.10;;;;;;;;;;6215433;28;20052;-78
2022/12/22 08:19:07;;;;;;;115.32;45.50;;;;;;;;;;6211585;28;20024;-78
2022/12/22 08:22:07;;;;;;;142.40;53.27;;;;;;;;;;6212993;28;20441;-78
2022/12/22 08:25:08;;;;;;;171.17;56.53;;;;;;;;;;6210316;28;20560;-78
2022/12/22 08:28:08;;;;;;;181.43;61.73;;;;;;;;;;6209702;28;20036;-78
2022/12/22 08:31:08;;;;;;;207.97;62.20;;;;;;;;;;6219539;28;20085;-79
2022/12/22 08:34:11;;;;;;;191.07;63.00;;;;;;;;;;6209666;28;20030;-79
2022/12/22 08:37:14;;;;;;;188.90;66.78;;;;;;;;;;6206504;28;20137;-79
2022/12/22 08:40:17;;;;;;;197.60;71.60;;;;;;;;;;6207513;28;20580;-80
2022/12/22 08:43:17;;;;;;;147.23;66.75;;;;;;;;;;6206782;28;20076;-79
2022/12/22 08:46:17;;;;;;;162.37;60.57;;;;;;;;;;6203009;28;20207;-79
2022/12/22 08:49:18;;;;;;;148.00;55.65;;;;;;;;;;6205481;28;20018;-79
2022/12/22 08:52:18;;;;;;;114.80;49.97;;;;;;;;;;6206913;28;20470;-79
2022/12/22 08:55:18;;;;;;;126.63;47.80;;;;;;;;;;6204371;28;20844;-79
2022/12/22 08:58:19;;;;;;;107.78;54.10;;;;;;;;;;6221168;28;20851;-80
2022/12/22 09:01:21;;;;;;;117.37;56.03;;;;;;;;;;6207510;28;20254;-79
2022/12/22 09:04:21;;;;;;;118.05;53.85;;;;;;;;;;6228837;28;20022;-79
2022/12/22 09:07:22;;;;;;;143.20;56.57;;;;;;;;;;6213020;28;20425;-79
2022/12/22 09:10:22;;;;;;;165.70;54.40;;;;;;;;;;6204691;28;20473;-80
2022/12/22 09:13:22;;;;;;;124.47;55.27;;;;;;;;;;6210396;28;20408;-82
2022/12/22 09:16:23;;;;;;;127.87;57.83;;;;;;;;;;6209070;28;20379;-81
2022/12/22 09:19:23;;;;;;;130.43;54.08;;;;;;;;;;6211806;28;20164;-82
2022/12/22 09:22:24;;;;;;;149.07;70.13;;;;;;;;;;6217871;28;20296;-83
2022/12/22 09:25:24;;;;;;;199.07;82.97;;;;;;;;;;6215076;28;20363;-81
2022/12/22 09:28:24;;;;;;;155.65;65.07;;;;;;;;;;6216853;28;20021;-83
2022/12/22 09:31:25;;;;;;;168.53;73.40;;;;;;;;;;6217213;28;20022;-82
2022/12/22 09:34:25;;;;;;;154.77;71.70;;;;;;;;;;6212594;28;20108;-82
2022/12/22 09:37:25;;;;;;;143.20;71.17;;;;;;;;;;6224097;28;20022;-84
2022/12/22 09:40:25;;;;;;;157.20;77.20;;;;;;;;;;6213989;28;20513;-84
2022/12/22 09:43:27;;;;;;;143.03;77.63;;;;;;;;;;6229292;28;20105;-84
2022/12/22 09:46:29;;;;;;;204.38;107.97;;;;;;;;;;6224772;28;20072;-85
2022/12/22 09:49:29;;;;;;;201.63;107.30;;;;;;;;;;6215682;28;20265;-85
2022/12/22 09:52:33;;;;;;;237.27;125.63;;;;;;;;;;6218921;28;20179;-85
2022/12/22 09:55:38;;;;;;;218.65;117.13;;;;;;;;;;6213573;28;20127;-84
2022/12/22 09:58:39;;;;;;;240.30;122.88;;;;;;;;;;6208406;28;20026;-84
2022/12/22 10:02:03;;;;;;;212.37;113.03;;;;;;;;;;6208161;28;20022;-83
2022/12/22 10:05:16;;;;;;;245.43;122.72;;;;;;;;;;6210958;28;20025;-82
2022/12/22 10:08:42;;;;;;;343.05;196.43;;;;;;;;;;6215771;28;20032;-82
2022/12/22 10:11:53;;;;;;;322.60;170.10;;;;;;;;;;6208646;28;20560;-81
2022/12/22 10:14:54;;;;;;;354.15;194.85;;;;;;;;;;6213600;28;20029;-81
2022/12/22 10:18:08;;;;;;;313.37;168.13;;;;;;;;;;6208013;28;20033;-81
2022/12/22 10:21:12;;;;;;;317.60;177.90;;;;;;;;;;6215777;28;20022;-80
2022/12/22 10:24:13;;;;;;;299.35;158.70;;;;;;;;;;6209132;28;20105;-80
2022/12/22 10:27:14;;;;;;;256.35;139.82;;;;;;;;;;6213193;28;20065;-80
2022/12/22 10:30:20;;;;;;;269.37;144.07;;;;;;;;;;6207412;28;20048;-79
2022/12/22 10:33:20;;;;;;;173.00;92.88;;;;;;;;;;6213640;28;20022;-79
2022/12/22 10:36:25;;;;;;;154.97;82.77;;;;;;;;;;6209008;28;20033;-79
2022/12/22 10:39:32;;;;;;;146.32;78.78;;;;;;;;;;6203806;28;20560;-79
2022/12/22 10:42:33;;;;;;;151.40;81.78;;;;;;;;;;6222080;28;20014;-78
2022/12/22 10:45:34;;;;;;;137.63;74.07;;;;;;;;;;6211995;28;20025;-78
2022/12/22 10:48:36;;;;;;;145.57;69.73;;;;;;;;;;6202038;28;20025;-78
2022/12/22 10:51:36;;;;;;;;;;;;;;;;;;6206539;28;20076;-78
2022/12/22 10:54:36;;;;;;;135.18;70.20;;;;;;;;;;6197003;28;19909;-78
2022/12/22 10:57:36;;;;;;;146.47;69.37;;;;;;;;;;6203045;28;20026;-77
2022/12/22 11:00:37;;;;;;;141.37;72.43;;;;;;;;;;6210909;28;20053;-78
2022/12/22 11:03:37;;;;;;;168.23;82.50;;;;;;;;;;6215122;28;20145;-78
2022/12/22 11:06:37;;;;;;;167.55;78.72;;;;;;;;;;6204367;28;20028;-78
2022/12/22 11:09:37;;;;;;;183.93;87.97;;;;;;;;;;6196264;28;20558;-79
2022/12/22 11:13:04;;;;;;;183.23;87.83;;;;;;;;;;6207485;28;20010;-80
2022/12/22 11:16:22;;;;;;;189.02;91.95;;;;;;;;;;6201782;28;20026;-80
2022/12/22 11:19:25;;;;;;;176.65;77.57;;;;;;;;;;6198069;28;20026;-79
2022/12/22 11:22:44;;;;;;;164.10;67.65;;;;;;;;;;6192891;28;20122;-78
2022/12/22 11:25:56;;;;;;;149.68;66.88;;;;;;;;;;6205471;28;20018;-78
2022/12/22 11:29:00;;;;;;;129.00;66.40;;;;;;;;;;6205024;28;20026;-78
2022/12/22 11:32:12;;;;;;;155.25;75.15;;;;;;;;;;6208885;28;20033;-78
2022/12/22 11:35:12;;;;;;;;;;;;;;;;;;6208558;28;20099;-78
2022/12/22 11:41:37;;;;;;;117.22;65.00;;;;;;;;;;6270437;28;20406;-78
2022/12/22 11:45:10;;;;;;;143.80;79.53;;;;;;;;;;6243569;28;20136;-78
2022/12/22 11:48:32;;;;;;;122.90;69.43;;;;;;;;;;6220139;28;20164;-78
2022/12/22 11:51:48;;;;;;;129.82;72.03;;;;;;;;;;6236663;28;20358;-78
2022/12/22 11:54:48;;;;;;;126.97;70.18;;;;;;;;;;6249991;28;20021;-78
2022/12/22 11:58:15;;;;;;;132.60;75.90;;;;;;;;;;6254963;28;20096;-78
2022/12/22 12:01:30;;;;;;;147.43;81.03;;;;;;;;;;6226920;28;20025;-78
2022/12/22 12:04:31;;;;;;;126.40;72.10;;;;;;;;;;6248249;28;20097;-76
2022/12/22 12:07:31;;;;;;;167.03;86.70;;;;;;;;;;6239163;28;20023;-78
2022/12/22 12:10:35;;;;;;;141.10;79.50;;;;;;;;;;6265177;28;20009;-77
2022/12/22 12:13:47;;;;;;;145.80;82.10;;;;;;;;;;6258603;28;20487;-77
2022/12/22 12:16:51;;;;;;;130.35;68.53;;;;;;;;;;6238840;28;20041;-77
2022/12/22 12:20:02;;;;;;;87.75;44.13;;;;;;;;;;6244206;28;20017;-78
2022/12/22 12:23:11;;;;;;;71.38;38.90;;;;;;;;;;6238792;28;20020;-77
2022/12/22 12:26:11;;;;;;;69.80;43.30;;;;;;;;;;6260296;28;20092;-78
2022/12/22 12:29:11;;;;;;;70.87;44.17;;;;;;;;;;6275432;28;20027;-77
2022/12/22 12:32:12;;;;;;;83.10;42.58;;;;;;;;;;6263133;28;20019;-77
2022/12/22 12:35:15;;;;;;;181.10;93.90;;;;;;;;;;6259033;28;20048;-76
2022/12/22 12:38:23;;;;;;;180.02;95.55;;;;;;;;;;6246555;28;20019;-76
2022/12/22 12:41:39;;;;;;;159.93;82.63;;;;;;;;;;6241202;28;20082;-77
2022/12/22 12:44:39;;;;;;;123.78;72.53;;;;;;;;;;6247477;28;20064;-77
2022/12/22 12:47:39;;;;;;;117.13;66.57;;;;;;;;;;6255766;28;20031;-77
2022/12/22 12:50:40;;;;;;;147.27;83.03;;;;;;;;;;6229730;28;20099;-76
2022/12/22 12:54:00;;;;;;;116.47;72.00;;;;;;;;;;6240070;28;20013;-77
2022/12/22 12:57:09;;;;;;;104.78;62.22;;;;;;;;;;6227254;28;20025;-76
2022/12/22 13:00:29;;;;;;;104.45;66.03;;;;;;;;;;6238480;28;20032;-77
2022/12/22 13:03:29;;;;;;;105.30;63.58;;;;;;;;;;6235185;28;20021;-77
2022/12/22 13:06:45;;;;;;;98.32;58.88;;;;;;;;;;6208659;28;20095;-77
2022/12/22 13:10:05;;;;;;;91.00;47.35;;;;;;;;;;6208302;28;20021;-76
2022/12/22 13:13:08;;;;;;;82.85;49.63;;;;;;;;;;6235680;28;20492;-76
2022/12/22 13:16:14;;;;;;;76.40;43.05;;;;;;;;;;6217646;28;20017;-76
2022/12/22 13:19:18;;;;;;;71.65;42.33;;;;;;;;;;6213697;28;20021;-76
2022/12/22 13:22:18;;;;;;;67.10;37.10;;;;;;;;;;6228340;28;20010;-77
2022/12/22 13:25:20;;;;;;;68.50;40.33;;;;;;;;;;6231765;28;20028;-77
2022/12/22 13:28:22;;;;;;;64.50;35.65;;;;;;;;;;6214602;28;20014;-77
2022/12/22 13:31:22;;;;;;;61.58;35.45;;;;;;;;;;6230939;28;20104;-78
2022/12/22 13:34:26;;;;;;;62.28;37.17;;;;;;;;;;6233937;28;20020;-77
2022/12/22 13:37:27;;;;;;;57.70;34.67;;;;;;;;;;6210374;28;20025;-77
2022/12/22 13:40:29;;;;;;;67.50;36.40;;;;;;;;;;6214276;28;20041;-78
2022/12/22 13:43:31;;;;;;;76.88;42.17;;;;;;;;;;6215568;28;20067;-77
2022/12/22 13:46:34;;;;;;;78.70;40.67;;;;;;;;;;6224386;28;20022;-78
2022/12/22 13:49:35;;;;;;;74.75;39.63;;;;;;;;;;6213883;28;20573;-79
2022/12/22 13:52:35;;;;;;;81.00;38.67;;;;;;;;;;6225446;28;20025;-79
2022/12/22 13:55:36;;;;;;;66.40;35.00;;;;;;;;;;6237970;28;20087;-78
2022/12/22 13:58:39;;;;;;;80.50;40.60;;;;;;;;;;6222881;28;20479;-80
2022/12/22 14:01:49;;;;;;;79.38;39.10;;;;;;;;;;6227738;28;20256;-80
2022/12/22 14:05:03;;;;;;;76.55;39.75;;;;;;;;;;6222703;28;20022;-81
2022/12/22 14:08:04;;;;;;;76.25;40.00;;;;;;;;;;6209993;28;20021;-80
2022/12/22 14:11:04;;;;;;;71.95;41.60;;;;;;;;;;6235246;28;20021;-80
2022/12/22 14:14:09;;;;;;;82.30;44.13;;;;;;;;;;6218513;28;20028;-81
2022/12/22 14:17:22;;;;;;;108.22;53.97;;;;;;;;;;6215178;28;20032;-81
2022/12/22 14:20:25;;;;;;;92.35;50.40;;;;;;;;;;6227041;28;20021;-81
2022/12/22 14:23:27;;;;;;;131.75;68.22;;;;;;;;;;6218117;28;20040;-82
2022/12/22 14:26:28;;;;;;;119.03;64.70;;;;;;;;;;6238363;28;20017;-82
2022/12/22 14:29:29;;;;;;;109.63;54.93;;;;;;;;;;6241287;28;20025;-83
2022/12/22 14:32:39;;;;;;;118.60;67.35;;;;;;;;;;6224946;28;20104;-83
2022/12/22 14:35:39;;;;;;;107.45;54.60;;;;;;;;;;6216133;28;20528;-84
2022/12/22 14:38:42;;;;;;;98.70;52.43;;;;;;;;;;6248903;28;20041;-84
2022/12/22 14:41:50;;;;;;;102.25;57.05;;;;;;;;;;6217007;28;20612;-84
2022/12/22 14:44:50;;;;;;;94.88;51.15;;;;;;;;;;6230956;28;20037;-84
2022/12/22 14:47:51;;;;;;;98.93;49.87;;;;;;;;;;6225921;28;20419;-86
2022/12/22 14:50:52;;;;;;;85.85;41.58;;;;;;;;;;6223990;28;20024;-84
2022/12/22 14:53:57;;;;;;;101.85;48.95;;;;;;;;;;6238468;28;20027;-84
2022/12/22 14:57:07;;;;;;;103.88;48.22;;;;;;;;;;6236086;28;20026;-86
2022/12/22 15:00:23;;;;;;;92.88;45.58;;;;;;;;;;6235202;28;20117;-85
2022/12/22 15:03:33;;;;;;;89.32;46.30;;;;;;;;;;6232804;28;20014;-86
2022/12/22 15:06:34;;;;;;;103.03;45.05;;;;;;;;;;6246067;28;20022;-87
2022/12/22 15:09:34;;;;;;;124.03;60.23;;;;;;;;;;6253561;28;20017;-88
2022/12/22 15:12:34;;;;;;;128.00;59.10;;;;;;;;;;6242656;28;20389;-86
2022/12/22 15:15:34;;;;;;;92.73;45.27;;;;;;;;;;6236449;28;20052;-87
2022/12/22 15:18:35;;;;;;;68.13;30.33;;;;;;;;;;6241165;28;20028;-85
2022/12/22 15:21:35;;;;;;;66.93;30.73;;;;;;;;;;6224440;28;20012;-85
2022/12/22 15:24:35;;;;;;;58.57;27.43;;;;;;;;;;6230185;28;20022;-84
2022/12/22 15:27:35;;;;;;;60.83;30.05;;;;;;;;;;6212018;28;20017;-86
2022/12/22 15:30:36;;;;;;;69.50;30.43;;;;;;;;;;6230933;28;20025;-85
2022/12/22 15:33:36;;;;;;;71.30;33.03;;;;;;;;;;6233624;28;20029;-85
2022/12/22 15:36:36;;;;;;;71.03;34.93;;;;;;;;;;6235348;28;20095;-84
2022/12/22 15:39:36;;;;;;;70.10;37.07;;;;;;;;;;6237684;28;20056;-84
2022/12/22 15:42:37;;;;;;;75.37;35.67;;;;;;;;;;6220938;28;20009;-82
2022/12/22 15:45:37;;;;;;;68.73;30.20;;;;;;;;;;6209461;28;20026;-79
2022/12/22 15:48:38;;;;;;;87.20;38.13;;;;;;;;;;6209786;28;20036;-82
2022/12/22 15:51:39;;;;;;;74.77;38.13;;;;;;;;;;6229290;28;20021;-82
2022/12/22 15:54:39;;;;;;;73.73;35.97;;;;;;;;;;6220548;28;20076;-78
2022/12/22 15:57:39;;;;;;;102.38;44.92;;;;;;;;;;6209340;28;20045;-77
2022/12/22 16:00:39;;;;;;;99.17;44.23;;;;;;;;;;6232452;28;20060;-78
2022/12/22 16:03:39;;;;;;;97.90;43.23;;;;;;;;;;6219462;28;20213;-77
2022/12/22 16:06:40;;;;;;;96.37;45.97;;;;;;;;;;6230281;28;20024;-78
2022/12/22 16:09:41;;;;;;;106.50;51.03;;;;;;;;;;6216261;28;20082;-79
2022/12/22 16:12:43;;;;;;;132.38;63.20;;;;;;;;;;6208767;28;20028;-79
2022/12/22 16:15:43;;;;;;;;;;;;;;;;;;6229452;28;20010;-79
2022/12/22 16:18:43;;;;;;;112.32;53.35;;;;;;;;;;6234293;28;19918;-79
2022/12/22 16:21:46;;;;;;;116.43;56.73;;;;;;;;;;6231404;28;20104;-79
2022/12/22 16:24:47;;;;;;;112.47;53.75;;;;;;;;;;6246037;28;20017;-78
2022/12/22 16:27:48;;;;;;;120.43;55.42;;;;;;;;;;6225731;28;20105;-77
2022/12/22 16:30:48;;;;;;;122.40;53.70;;;;;;;;;;6215403;28;20021;-76
2022/12/22 16:33:49;;;;;;;113.70;54.50;;;;;;;;;;6220014;28;20018;-78
2022/12/22 16:36:49;;;;;;;108.03;54.67;;;;;;;;;;6228253;28;20373;-78
2022/12/22 16:39:49;;;;;;;84.93;41.55;;;;;;;;;;6236676;28;20033;-78
2022/12/22 16:42:56;;;;;;;87.10;38.87;;;;;;;;;;6240603;28;20051;-77
2022/12/22 16:45:57;;;;;;;99.15;47.10;;;;;;;;;;6252554;28;20531;-77
2022/12/22 16:48:58;;;;;;;79.77;38.70;;;;;;;;;;6225105;28;20021;-77
2022/12/22 16:51:58;;;;;;;175.05;81.97;;;;;;;;;;6244667;28;20018;-77
2022/12/22 16:54:59;;;;;;;179.77;76.27;;;;;;;;;;6247439;28;20012;-77
2022/12/22 16:57:59;;;;;;;141.45;63.97;;;;;;;;;;6237383;28;20021;-77
2022/12/22 17:00:59;;;;;;;93.53;47.08;;;;;;;;;;6248014;28;20013;-77
2022/12/22 17:04:01;;;;;;;99.83;44.57;;;;;;;;;;6223669;28;20368;-78
2022/12/22 17:07:05;;;;;;;183.45;84.97;;;;;;;;;;6231871;28;20033;-78
2022/12/22 17:10:06;;;;;;;271.70;112.88;;;;;;;;;;6250219;28;20018;-78
2022/12/22 17:13:08;;;;;;;126.37;48.07;;;;;;;;;;6244403;28;20056;-78
2022/12/22 17:16:08;;;;;;;;;;;;;;;;;;6210393;28;20032;-76
2022/12/22 17:19:09;;;;;;;99.20;40.92;;;;;;;;;;6239135;28;19976;-77
2022/12/22 17:22:24;;;;;;;85.18;39.78;;;;;;;;;;6238238;28;20017;-77
2022/12/22 17:25:29;;;;;;;65.50;32.08;;;;;;;;;;6223000;28;20032;-76
2022/12/22 17:28:29;;;;;;;77.22;37.92;;;;;;;;;;6243153;28;20036;-81
2022/12/22 17:31:30;;;;;;;78.37;33.90;;;;;;;;;;6234042;28;20017;-77
2022/12/22 17:34:30;;;;;;;71.80;34.22;;;;;;;;;;6211558;28;20524;-77
2022/12/22 17:37:31;;;;;;;87.50;39.70;;;;;;;;;;6241357;28;20025;-77
2022/12/22 17:40:33;;;;;;;108.17;47.20;;;;;;;;;;6237837;28;20049;-76
2022/12/22 17:43:33;;;;;;;;;;;;;;;;;;6241927;28;20033;-75
2022/12/22 17:46:33;;;;;;;74.88;33.22;;;;;;;;;;6254149;28;19905;-77
2022/12/22 17:49:33;;;;;;;78.73;36.27;;;;;;;;;;6225407;28;20609;-76
2022/12/22 17:52:33;;;;;;;78.83;33.20;;;;;;;;;;6213548;28;20405;-75
2022/12/22 17:55:34;;;;;;;78.33;39.30;;;;;;;;;;6225660;28;20581;-75
2022/12/22 17:58:35;;;;;;;86.83;39.50;;;;;;;;;;6217545;28;20026;-74
2022/12/22 18:01:38;;;;;;;70.75;34.85;;;;;;;;;;6219495;28;20057;-77
2022/12/22 18:04:38;;;;;;;69.72;32.75;;;;;;;;;;6229230;28;20017;-77
2022/12/22 18:07:38;;;;;;;91.60;45.20;;;;;;;;;;6228626;28;20045;-77
2022/12/22 18:10:39;;;;;;;61.43;30.00;;;;;;;;;;6218854;28;20136;-79
2022/12/22 18:13:39;;;;;;;74.40;37.47;;;;;;;;;;6255929;28;20017;-78
2022/12/22 18:16:39;;;;;;;63.70;32.67;;;;;;;;;;6242865;28;20294;-76
2022/12/22 18:19:40;;;;;;;67.00;33.57;;;;;;;;;;6225474;28;20021;-77
2022/12/22 18:22:41;;;;;;;60.87;35.10;;;;;;;;;;6220025;28;20075;-77
2022/12/22 18:25:41;;;;;;;86.03;40.73;;;;;;;;;;6241748;28;20056;-77
2022/12/22 18:28:41;;;;;;;83.20;38.90;;;;;;;;;;6244920;28;20023;-76
2022/12/22 18:31:42;;;;;;;64.43;32.10;;;;;;;;;;6234905;28;20017;-79
2022/12/22 18:34:43;;;;;;;66.07;33.22;;;;;;;;;;6217713;28;20018;-79
2022/12/22 18:37:43;;;;;;;59.40;29.33;;;;;;;;;;6246683;28;20024;-75
2022/12/22 18:40:46;;;;;;;66.43;31.70;;;;;;;;;;6217838;28;20057;-80
2022/12/22 18:43:46;;;;;;;60.80;29.20;;;;;;;;;;6222296;28;20033;-77
2022/12/22 18:46:47;;;;;;;73.13;35.43;;;;;;;;;;6220022;28;20463;-75
2022/12/22 18:49:48;;;;;;;78.25;38.65;;;;;;;;;;6219337;28;20018;-76
2022/12/22 18:52:48;;;;;;;95.00;48.70;;;;;;;;;;6215192;28;20056;-76
2022/12/22 18:55:49;;;;;;;70.40;33.13;;;;;;;;;;6220471;28;20845;-77
2022/12/22 18:58:49;;;;;;;71.10;33.40;;;;;;;;;;6199478;28;20423;-82
2022/12/22 19:01:50;;;;;;;67.50;34.63;;;;;;;;;;6223508;28;20026;-77
2022/12/22 19:04:50;;;;;;;63.67;31.80;;;;;;;;;;6211244;28;20075;-78
2022/12/22 19:07:51;;;;;;;68.40;36.20;;;;;;;;;;6199624;28;20553;-76
2022/12/22 19:10:59;;;;;;;72.53;36.97;;;;;;;;;;6192680;28;20563;-77
2022/12/22 19:13:59;;;;;;;80.07;36.80;;;;;;;;;;6200150;28;20128;-75
2022/12/22 19:16:59;;;;;;;77.83;38.57;;;;;;;;;;6202331;28;20029;-76
2022/12/22 19:19:59;;;;;;;79.53;39.67;;;;;;;;;;6215314;28;20109;-75
2022/12/22 19:22:59;;;;;;;81.23;41.23;;;;;;;;;;6202932;28;20615;-77
2022/12/22 19:26:03;;;;;;;88.13;44.30;;;;;;;;;;6218470;28;20025;-77
2022/12/22 19:29:03;;;;;;;70.78;35.65;;;;;;;;;;6224954;28;20028;-78
2022/12/22 19:32:03;;;;;;;71.37;35.60;;;;;;;;;;6222323;28;20018;-77
2022/12/22 19:35:05;;;;;;;78.93;38.27;;;;;;;;;;6223004;28;20010;-76
2022/12/22 19:38:13;;;;;;;70.05;35.80;;;;;;;;;;6214063;28;20030;-77
2022/12/22 19:41:32;;;;;;;64.85;35.97;;;;;;;;;;6225918;28;20053;-78
2022/12/22 19:44:32;;;;;;;84.85;45.35;;;;;;;;;;6222353;28;20432;-77
2022/12/22 19:47:32;;;;;;;71.20;37.33;;;;;;;;;;6227274;28;20022;-75
2022/12/22 19:50:33;;;;;;;66.13;33.97;;;;;;;;;;6221465;28;20052;-77
2022/12/22 19:53:33;;;;;;;60.03;32.00;;;;;;;;;;6220690;28;20033;-78
2022/12/22 19:56:35;;;;;;;64.20;34.15;;;;;;;;;;6237893;28;20421;-76
2022/12/22 19:59:35;;;;;;;;;;;;;;;;;;6244691;28;20027;-77
2022/12/22 20:02:35;;;;;;;72.47;34.88;;;;;;;;;;6262756;28;19908;-76
2022/12/22 20:05:35;;;;;;;70.83;33.83;;;;;;;;;;6242818;28;20511;-75
2022/12/22 20:08:35;;;;;;;75.97;36.85;;;;;;;;;;6248194;28;20458;-77
2022/12/22 20:11:36;;;;;;;67.13;35.80;;;;;;;;;;6243973;28;20330;-74
2022/12/22 20:14:36;;;;;;;71.77;35.60;;;;;;;;;;6241769;28;20032;-75
2022/12/22 20:17:36;;;;;;;68.43;36.67;;;;;;;;;;6208995;28;20110;-74
2022/12/22 20:20:37;;;;;;;72.40;35.57;;;;;;;;;;6219942;28;20038;-75
2022/12/22 20:23:38;;;;;;;71.40;33.97;;;;;;;;;;6208077;28;20179;-75
2022/12/22 20:26:38;;;;;;;61.10;33.27;;;;;;;;;;6242436;28;20036;-74
2022/12/22 20:29:38;;;;;;;65.60;30.80;;;;;;;;;;6222800;28;20087;-75
2022/12/22 20:32:38;;;;;;;55.57;28.20;;;;;;;;;;6251984;28;20910;-76
2022/12/22 20:35:39;;;;;;;54.45;25.90;;;;;;;;;;6247739;28;20025;-74
2022/12/22 20:38:41;;;;;;;48.20;26.20;;;;;;;;;;6259023;28;20017;-75
2022/12/22 20:41:41;;;;;;;55.70;24.98;;;;;;;;;;6229677;28;20484;-76
2022/12/22 20:44:41;;;;;;;56.33;29.13;;;;;;;;;;6243062;28;20025;-75
2022/12/22 20:47:41;;;;;;;52.10;24.33;;;;;;;;;;6211531;28;20094;-74
2022/12/22 20:50:42;;;;;;;62.03;27.00;;;;;;;;;;6238462;28;20032;-76
2022/12/22 20:53:42;;;;;;;55.08;26.35;;;;;;;;;;6219696;28;20049;-76
2022/12/22 20:56:43;;;;;;;76.73;32.97;;;;;;;;;;6224026;28;20029;-76
2022/12/22 20:59:45;;;;;;;162.33;71.80;;;;;;;;;;6219547;28;20440;-75
2022/12/22 21:02:45;;;;;;;173.25;66.00;;;;;;;;;;6235119;28;20013;-77
2022/12/22 21:05:46;;;;;;;109.63;46.00;;;;;;;;;;6240228;28;20075;-76
2022/12/22 21:08:46;;;;;;;157.67;71.93;;;;;;;;;;6236195;28;20091;-78
2022/12/22 21:11:46;;;;;;;124.90;55.40;;;;;;;;;;6221839;28;20041;-76
2022/12/22 21:14:48;;;;;;;129.97;50.50;;;;;;;;;;6220992;28;20108;-76